createdAt,value
2019-02-07T00:00:42.330Z,63.83
2019-02-07T00:03:16.005Z,65.07
2019-02-07T00:05:49.638Z,65.97
2019-02-07T00:08:23.620Z,69.60
2019-02-07T00:10:57.274Z,72.63
2019-02-07T00:13:31.042Z,67.43
2019-02-07T00:16:04.864Z,68.47
2019-02-07T00:18:38.598Z,66.27
2019-02-07T00:21:12.247Z,69.60
2019-02-07T00:23:45.840Z,67.60
2019-02-07T00:26:19.608Z,81.57
2019-02-07T00:28:53.276Z,78.90
2019-02-07T00:31:29.800Z,77.80
2019-02-07T00:34:03.620Z,73.00
2019-02-07T00:36:37.248Z,72.27
2019-02-07T00:39:10.982Z,72.63
2019-02-07T00:41:44.854Z,75.83
2019-02-07T00:44:18.512Z,73.30
2019-02-07T00:46:52.094Z,71.70
2019-02-07T00:49:25.777Z,82.97
2019-02-07T00:51:59.767Z,73.43
2019-02-07T00:54:33.444Z,76.07
2019-02-07T00:57:07.072Z,74.87
2019-02-07T00:59:40.672Z,75.33
2019-02-07T01:02:14.370Z,74.40
2019-02-07T01:04:47.950Z,70.60
2019-02-07T01:07:21.706Z,71.40
2019-02-07T01:09:55.360Z,68.50
2019-02-07T01:12:29.077Z,73.03
2019-02-07T01:15:02.802Z,74.60
2019-02-07T01:17:36.416Z,71.70
2019-02-07T01:20:13.236Z,81.60
2019-02-07T01:22:47.394Z,78.50
2019-02-07T01:25:25.015Z,75.57
2019-02-07T01:27:58.761Z,71.33
2019-02-07T01:30:32.725Z,73.37
2019-02-07T01:33:06.786Z,78.23
2019-02-07T01:35:40.832Z,68.03
2019-02-07T01:38:14.692Z,77.80
2019-02-07T01:40:48.291Z,78.00
2019-02-07T01:43:22.038Z,73.87
2019-02-07T01:45:55.679Z,71.40
2019-02-07T01:48:29.340Z,73.97
2019-02-07T01:51:02.981Z,71.13
2019-02-07T01:53:36.650Z,71.00
2019-02-07T01:56:10.512Z,74.47
2019-02-07T01:58:44.109Z,81.13
2019-02-07T02:01:17.799Z,75.80
2019-02-07T02:03:51.380Z,77.83
2019-02-07T02:06:25.078Z,80.10
2019-02-07T02:08:59.036Z,72.30
2019-02-07T02:11:32.817Z,82.47
2019-02-07T02:14:07.823Z,74.87
2019-02-07T02:16:41.549Z,80.03
2019-02-07T02:19:15.156Z,84.60
2019-02-07T02:21:48.964Z,82.77
2019-02-07T02:24:22.640Z,72.37
2019-02-07T02:26:56.336Z,77.87
2019-02-07T02:29:29.998Z,76.77
2019-02-07T02:32:04.829Z,77.13
2019-02-07T02:34:38.558Z,83.13
2019-02-07T02:37:12.183Z,88.67
2019-02-07T02:39:45.972Z,83.83
2019-02-07T02:42:19.933Z,78.57
2019-02-07T02:44:53.912Z,78.17
2019-02-07T02:47:27.551Z,83.03
2019-02-07T02:50:01.226Z,82.13
2019-02-07T02:52:34.884Z,83.40
2019-02-07T02:55:10.726Z,86.87
2019-02-07T02:57:44.436Z,85.43
2019-02-07T03:00:20.044Z,90.77
2019-02-07T03:03:01.263Z,82.23
2019-02-07T03:05:36.524Z,80.30
2019-02-07T03:08:30.026Z,87.53
2019-02-07T03:11:06.063Z,83.73
2019-02-07T03:13:57.808Z,85.43
2019-02-07T03:16:51.443Z,89.10
2019-02-07T03:19:44.681Z,87.13
2019-02-07T03:22:29.052Z,80.77
2019-02-07T03:25:13.171Z,88.67
2019-02-07T03:27:54.098Z,89.47
2019-02-07T03:30:35.455Z,87.87
2019-02-07T03:33:13.276Z,89.67
2019-02-07T03:35:51.390Z,91.63
2019-02-07T03:41:44.720Z,91.43
2019-02-07T03:44:20.478Z,91.33
2019-02-07T03:47:04.590Z,94.90
2019-02-07T03:49:42.678Z,95.10
2019-02-07T03:52:23.877Z,89.87
2019-02-07T03:55:02.216Z,91.23
2019-02-07T03:57:46.406Z,79.67
2019-02-07T04:00:24.596Z,91.53
2019-02-07T04:03:02.752Z,83.37
2019-02-07T04:05:44.015Z,89.33
2019-02-07T04:08:19.424Z,94.60
2019-02-07T04:11:11.144Z,94.87
2019-02-07T04:13:52.350Z,91.97
2019-02-07T04:16:27.873Z,95.20
2019-02-07T04:19:18.025Z,88.83
2019-02-07T04:25:08.582Z,96.53
2019-02-07T04:27:43.864Z,104.07
2019-02-07T04:30:34.537Z,103.63
2019-02-07T04:33:09.824Z,103.83
2019-02-07T04:36:01.249Z,94.93
2019-02-07T04:38:52.572Z,102.23
2019-02-07T04:41:40.095Z,98.77
2019-02-07T04:44:31.696Z,99.80
2019-02-07T04:47:19.133Z,88.17
2019-02-07T04:50:09.568Z,91.43
2019-02-07T04:52:59.122Z,96.13
2019-02-07T04:55:45.759Z,93.13
2019-02-07T04:58:21.067Z,86.10
2019-02-07T05:00:56.499Z,93.83
2019-02-07T05:03:47.190Z,95.37
2019-02-07T05:06:25.116Z,90.73
2019-02-07T05:09:00.343Z,93.07
2019-02-07T05:11:41.623Z,99.70
2019-02-07T05:14:19.481Z,98.67
2019-02-07T05:17:03.605Z,96.20
2019-02-07T05:19:55.053Z,100.83
2019-02-07T05:22:46.442Z,104.47
2019-02-07T05:25:22.077Z,104.40
2019-02-07T05:28:03.032Z,109.17
2019-02-07T05:30:41.201Z,96.87
2019-02-07T05:33:32.569Z,106.37
2019-02-07T05:36:07.933Z,99.17
2019-02-07T05:38:52.179Z,112.73
2019-02-07T05:41:27.851Z,101.90
2019-02-07T05:44:06.032Z,101.50
2019-02-07T05:46:51.270Z,101.27
2019-02-07T05:49:43.094Z,98.50
2019-02-07T05:52:20.867Z,108.33
2019-02-07T05:55:04.929Z,104.00
2019-02-07T05:57:40.281Z,104.63
2019-02-07T06:00:24.522Z,106.83
2019-02-07T06:03:11.968Z,98.33
2019-02-07T06:05:49.995Z,116.80
2019-02-07T06:08:37.176Z,104.17
2019-02-07T06:14:26.278Z,114.47
2019-02-07T06:17:02.976Z,115.10
2019-02-07T06:19:54.807Z,111.90
2019-02-07T06:22:32.695Z,111.03
2019-02-07T06:25:22.532Z,106.03
2019-02-07T06:27:57.769Z,111.03
2019-02-07T06:30:38.636Z,109.47
2019-02-07T06:33:29.649Z,109.20
2019-02-07T06:36:23.149Z,112.70
2019-02-07T06:38:58.375Z,103.20
2019-02-07T06:41:36.655Z,105.53
2019-02-07T06:44:11.888Z,106.63
2019-02-07T06:47:13.004Z,114.20
2019-02-07T06:49:46.083Z,110.77
2019-02-07T06:52:24.366Z,108.80
2019-02-07T06:55:11.762Z,113.77
2019-02-07T06:57:47.138Z,121.13
2019-02-07T07:00:34.488Z,122.50
2019-02-07T07:03:12.671Z,122.67
2019-02-07T07:05:50.470Z,121.53
2019-02-07T07:08:31.545Z,118.37
2019-02-07T07:11:09.603Z,121.97
2019-02-07T07:13:50.992Z,122.30
2019-02-07T07:16:35.175Z,114.70
2019-02-07T07:19:16.264Z,108.80
2019-02-07T07:22:03.182Z,121.47
2019-02-07T07:24:54.905Z,126.17
2019-02-07T07:27:30.211Z,113.73
2019-02-07T07:30:10.198Z,121.00
2019-02-07T07:32:57.758Z,109.67
2019-02-07T07:35:35.930Z,118.43
2019-02-07T07:38:17.021Z,124.13
2019-02-07T07:40:58.017Z,116.47
2019-02-07T07:43:49.402Z,118.50
2019-02-07T07:46:24.737Z,106.07
2019-02-07T07:49:00.042Z,99.30
2019-02-07T07:51:51.349Z,98.60
2019-02-07T07:54:32.151Z,103.13
2019-02-07T07:57:10.320Z,94.73
2019-02-07T07:59:51.372Z,99.63
2019-02-07T08:02:27.754Z,105.07
2019-02-07T08:05:14.790Z,101.43
2019-02-07T08:07:58.969Z,98.00
2019-02-07T08:10:37.271Z,98.20
2019-02-07T08:13:12.692Z,101.17
2019-02-07T08:16:02.949Z,94.93
2019-02-07T08:18:44.504Z,95.47
2019-02-07T08:21:28.941Z,98.40
2019-02-07T08:24:20.535Z,95.50
2019-02-07T08:27:10.760Z,87.90
2019-02-07T08:29:52.232Z,88.57
2019-02-07T08:32:27.536Z,85.23
2019-02-07T08:35:18.098Z,88.73
2019-02-07T08:37:58.048Z,88.90
2019-02-07T08:40:35.691Z,83.00
2019-02-07T08:43:29.210Z,83.07
2019-02-07T08:46:16.492Z,89.63
2019-02-07T08:48:51.788Z,83.37
2019-02-07T08:51:36.041Z,79.60
2019-02-07T08:54:14.551Z,78.23
2019-02-07T08:56:55.765Z,76.70
2019-02-07T08:59:33.602Z,83.67
2019-02-07T09:02:09.079Z,78.33
2019-02-07T09:04:44.319Z,75.03
2019-02-07T09:07:22.501Z,74.67
2019-02-07T09:10:00.524Z,69.80
2019-02-07T09:12:41.980Z,75.70
2019-02-07T09:15:17.574Z,70.50
2019-02-07T09:18:11.378Z,80.13
2019-02-07T09:21:01.310Z,71.47
2019-02-07T09:23:55.014Z,76.70
2019-02-07T09:26:30.333Z,70.10
2019-02-07T09:29:08.768Z,66.50
2019-02-07T09:31:49.848Z,68.83
2019-02-07T09:34:30.982Z,66.70
2019-02-07T09:37:18.495Z,67.97
2019-02-07T09:40:10.035Z,65.30
2019-02-07T09:42:45.428Z,68.17
2019-02-07T09:45:20.859Z,69.93
2019-02-07T09:48:21.156Z,63.07
2019-02-07T09:50:53.518Z,70.77
2019-02-07T09:53:28.827Z,75.03
2019-02-07T09:56:12.994Z,70.10
2019-02-07T09:58:48.291Z,67.90
2019-02-07T10:01:32.352Z,64.90
2019-02-07T10:04:23.248Z,60.53
2019-02-07T10:06:58.456Z,62.13
2019-02-07T10:09:39.416Z,64.23
2019-02-07T10:12:23.945Z,65.00
2019-02-07T10:15:11.265Z,68.03
2019-02-07T10:17:58.734Z,62.73
2019-02-07T10:20:48.833Z,56.67
2019-02-07T10:23:40.437Z,59.63
2019-02-07T10:26:24.176Z,65.03
2019-02-07T10:29:08.611Z,65.10
2019-02-07T10:32:00.556Z,60.03
2019-02-07T10:34:41.588Z,64.03
2019-02-07T10:37:16.807Z,58.27
2019-02-07T10:39:52.237Z,58.17
2019-02-07T10:42:43.942Z,56.13
2019-02-07T10:45:28.076Z,62.03
2019-02-07T10:48:06.056Z,57.17
2019-02-07T10:50:43.946Z,57.57
2019-02-07T10:53:35.544Z,59.53
2019-02-07T10:56:10.868Z,62.43
2019-02-07T10:58:48.980Z,62.20
2019-02-07T11:01:24.369Z,51.53
2019-02-07T11:04:02.708Z,56.47
2019-02-07T11:06:49.968Z,59.47
2019-02-07T11:09:41.450Z,63.77
2019-02-07T11:12:19.702Z,57.03
2019-02-07T11:14:57.518Z,59.47
2019-02-07T11:17:48.071Z,50.30
2019-02-07T11:20:39.867Z,47.07
2019-02-07T11:23:15.240Z,49.07
2019-02-07T11:26:06.882Z,45.13
2019-02-07T11:28:42.139Z,47.83
2019-02-07T11:31:35.684Z,43.97
2019-02-07T11:34:16.552Z,50.73
2019-02-07T11:37:08.271Z,64.50
2019-02-07T11:39:55.541Z,71.57
2019-02-07T11:42:33.725Z,67.50
2019-02-07T11:45:15.369Z,70.27
2019-02-07T11:48:02.767Z,68.43
2019-02-07T11:50:46.684Z,71.63
2019-02-07T11:53:22.030Z,72.07
2019-02-07T11:56:06.040Z,66.50
2019-02-07T11:58:41.380Z,68.23
2019-02-07T12:01:28.418Z,67.17
2019-02-07T12:04:12.811Z,71.57
2019-02-07T12:06:48.302Z,77.67
2019-02-07T12:09:26.448Z,71.47
2019-02-07T12:12:01.781Z,75.13
2019-02-07T12:14:53.498Z,71.60
2019-02-07T12:17:41.234Z,73.20
2019-02-07T12:20:16.593Z,75.33
2019-02-07T12:22:54.630Z,73.10
2019-02-07T12:25:41.531Z,78.27
2019-02-07T12:28:28.710Z,77.60
2019-02-07T12:31:09.596Z,93.13
2019-02-07T12:33:50.700Z,79.17
2019-02-07T12:36:28.772Z,81.20
2019-02-07T12:39:08.276Z,75.10
2019-02-07T12:41:49.319Z,74.63
2019-02-07T12:44:27.683Z,77.50
2019-02-07T12:47:15.520Z,72.97
2019-02-07T12:50:02.977Z,80.07
2019-02-07T12:52:54.755Z,78.37
2019-02-07T12:55:29.992Z,80.53
2019-02-07T12:58:21.622Z,74.40
2019-02-07T13:01:02.839Z,72.83
2019-02-07T13:03:47.124Z,77.93
2019-02-07T13:06:22.391Z,75.67
2019-02-07T13:09:14.227Z,80.87
2019-02-07T13:12:05.968Z,78.87
2019-02-07T13:14:41.307Z,80.73
2019-02-07T13:17:22.524Z,76.83
2019-02-07T13:20:00.726Z,70.37
2019-02-07T13:22:36.399Z,81.73
2019-02-07T13:25:15.530Z,76.60
2019-02-07T13:27:53.644Z,78.00
2019-02-07T13:30:34.729Z,77.63
2019-02-07T13:33:10.000Z,79.93
2019-02-07T13:35:50.886Z,83.90
2019-02-07T13:38:32.085Z,74.93
2019-02-07T13:41:25.568Z,76.30
2019-02-07T13:44:03.977Z,72.87
2019-02-07T13:46:55.868Z,73.30
2019-02-07T13:49:34.032Z,74.70
2019-02-07T13:52:09.513Z,71.60
2019-02-07T13:54:48.052Z,69.03
2019-02-07T13:57:32.380Z,65.80
2019-02-07T14:00:13.353Z,68.50
2019-02-07T14:02:51.522Z,68.90
2019-02-07T14:05:43.173Z,66.33
2019-02-07T14:08:18.451Z,71.57
2019-02-07T14:10:53.684Z,79.13
2019-02-07T14:13:45.533Z,76.77
2019-02-07T14:16:23.609Z,83.40
2019-02-07T14:19:15.499Z,91.20
2019-02-07T14:22:05.610Z,95.13
2019-02-07T14:24:54.263Z,100.87
2019-02-07T14:27:45.628Z,85.73
2019-02-07T14:30:21.010Z,86.47
2019-02-07T14:33:11.766Z,85.13
2019-02-07T14:35:49.565Z,89.17
2019-02-07T14:38:24.913Z,87.20
2019-02-07T14:41:05.709Z,91.03
2019-02-07T14:43:57.433Z,83.53
2019-02-07T14:46:41.901Z,82.20
2019-02-07T14:49:15.719Z,81.97
2019-02-07T14:51:49.439Z,91.93
2019-02-07T14:54:23.184Z,88.10
2019-02-07T14:56:56.811Z,82.63
2019-02-07T14:59:30.991Z,89.30
2019-02-07T15:02:04.870Z,83.90
2019-02-07T15:04:38.905Z,92.53
2019-02-07T15:07:12.533Z,97.40
2019-02-07T15:09:46.350Z,91.87
2019-02-07T15:12:19.983Z,92.13
2019-02-07T15:14:53.633Z,90.60
2019-02-07T15:17:27.318Z,101.63
2019-02-07T15:20:00.906Z,91.63
2019-02-07T15:22:34.545Z,105.07
2019-02-07T15:25:11.169Z,98.93
2019-02-07T15:27:44.844Z,106.90
2019-02-07T15:30:20.601Z,102.47
2019-02-07T15:32:54.202Z,113.53
2019-02-07T15:35:33.685Z,108.63
2019-02-07T15:38:07.411Z,116.47
2019-02-07T15:40:41.227Z,111.33
2019-02-07T15:43:15.744Z,125.47
2019-02-07T15:45:49.503Z,119.20
2019-02-07T15:48:23.602Z,125.30
2019-02-07T15:50:57.293Z,123.23
2019-02-07T15:53:30.971Z,126.50
2019-02-07T15:56:04.980Z,124.87
2019-02-07T15:58:42.785Z,127.07
2019-02-07T16:01:18.094Z,132.00
2019-02-07T16:03:56.295Z,124.63
2019-02-07T16:06:29.895Z,125.43
2019-02-07T16:09:05.906Z,121.23
2019-02-07T16:11:39.538Z,123.67
2019-02-07T16:14:13.283Z,127.77
2019-02-07T16:16:46.954Z,129.83
2019-02-07T16:19:22.982Z,118.03
2019-02-07T16:21:56.661Z,124.43
2019-02-07T16:24:30.323Z,126.63
2019-02-07T16:27:04.375Z,125.70
2019-02-07T16:29:37.987Z,134.37
2019-02-07T16:32:11.836Z,125.50
2019-02-07T16:34:45.505Z,126.93
2019-02-07T16:37:19.317Z,132.90
2019-02-07T16:39:53.154Z,119.40
2019-02-07T16:42:26.877Z,131.77
2019-02-07T16:45:00.634Z,124.67
2019-02-07T16:47:34.432Z,125.17
2019-02-07T16:50:11.169Z,135.10
2019-02-07T16:52:44.903Z,133.87
2019-02-07T16:55:18.713Z,129.77
2019-02-07T16:57:52.355Z,127.63
2019-02-07T17:00:33.817Z,125.97
2019-02-07T17:03:07.516Z,124.93
2019-02-07T17:05:41.455Z,132.73
2019-02-07T17:08:15.111Z,126.07
2019-02-07T17:10:49.191Z,122.33
2019-02-07T17:13:29.087Z,132.67
2019-02-07T17:16:02.879Z,119.40
2019-02-07T17:18:36.537Z,124.00
2019-02-07T17:21:12.272Z,117.97
2019-02-07T17:23:45.694Z,113.83
2019-02-07T17:26:19.474Z,115.77
2019-02-07T17:28:53.139Z,114.63
2019-02-07T17:31:26.775Z,117.53
2019-02-07T17:34:00.463Z,110.83
2019-02-07T17:36:34.101Z,110.30
2019-02-07T17:39:08.225Z,109.50
2019-02-07T17:41:41.901Z,106.60
2019-02-07T17:44:15.569Z,102.40
2019-02-07T17:46:49.293Z,107.03
2019-02-07T17:49:23.129Z,105.73
2019-02-07T17:51:56.834Z,105.77
2019-02-07T17:54:30.573Z,103.33
2019-02-07T17:57:04.739Z,100.20
2019-02-07T17:59:38.464Z,113.10
2019-02-07T18:02:13.784Z,105.40
2019-02-07T18:04:47.414Z,101.70
2019-02-07T18:07:21.067Z,113.70
2019-02-07T18:09:54.750Z,109.23
2019-02-07T18:12:28.444Z,105.03
2019-02-07T18:15:02.239Z,110.20
2019-02-07T18:17:35.972Z,101.90
2019-02-07T18:20:13.483Z,103.67
2019-02-07T18:22:47.204Z,99.57
2019-02-07T18:25:21.058Z,92.47
2019-02-07T18:27:54.762Z,90.53
2019-02-07T18:30:29.306Z,92.90
2019-02-07T18:33:03.010Z,98.83
2019-02-07T18:35:36.784Z,99.00
2019-02-07T18:38:10.532Z,101.67
2019-02-07T18:40:45.202Z,95.53
2019-02-07T18:43:18.788Z,88.60
2019-02-07T18:45:52.493Z,88.97
2019-02-07T18:48:26.074Z,92.30
2019-02-07T18:50:59.722Z,92.27
2019-02-07T18:53:33.516Z,86.07
2019-02-07T18:56:07.184Z,88.20
2019-02-07T18:58:41.050Z,87.83
2019-02-07T19:01:14.633Z,91.97
2019-02-07T19:03:48.280Z,84.43
2019-02-07T19:06:21.877Z,90.57
2019-02-07T19:08:55.594Z,83.23
2019-02-07T19:11:29.247Z,91.50
2019-02-07T19:14:02.966Z,84.60
2019-02-07T19:16:36.688Z,87.23
2019-02-07T19:19:10.401Z,90.60
2019-02-07T19:21:44.112Z,85.73
2019-02-07T19:24:17.804Z,82.57
2019-02-07T19:26:51.632Z,79.47
2019-02-07T19:29:25.336Z,88.47
2019-02-07T19:31:58.924Z,86.63
2019-02-07T19:34:32.924Z,84.83
2019-02-07T19:37:07.117Z,84.23
2019-02-07T19:39:41.188Z,83.60
2019-02-07T19:42:14.773Z,81.77
2019-02-07T19:44:48.470Z,80.27
2019-02-07T19:47:22.142Z,79.97
2019-02-07T19:49:56.154Z,78.07
2019-02-07T19:52:30.280Z,80.60
2019-02-07T19:55:05.098Z,84.27
2019-02-07T19:57:38.699Z,75.93
2019-02-07T20:00:18.331Z,79.97
2019-02-07T20:02:52.234Z,80.70
2019-02-07T20:05:26.420Z,81.97
2019-02-07T20:08:00.385Z,81.50
2019-02-07T20:10:34.164Z,81.70
2019-02-07T20:13:07.889Z,78.67
2019-02-07T20:15:43.399Z,83.13
2019-02-07T20:18:17.153Z,76.27
2019-02-07T20:20:50.863Z,82.20
2019-02-07T20:23:24.950Z,75.20
2019-02-07T20:25:58.681Z,82.87
2019-02-07T20:28:32.570Z,80.50
2019-02-07T20:31:06.394Z,79.70
2019-02-07T20:33:40.096Z,78.43
2019-02-07T20:36:14.012Z,74.40
2019-02-07T20:38:47.748Z,74.33
2019-02-07T20:41:21.825Z,74.93
2019-02-07T20:43:55.421Z,73.77
2019-02-07T20:46:29.231Z,75.33
2019-02-07T20:49:02.790Z,75.57
2019-02-07T20:51:36.514Z,75.77
2019-02-07T20:54:10.106Z,68.87
2019-02-07T20:56:43.768Z,73.13
2019-02-07T20:59:17.834Z,75.83
2019-02-07T21:01:51.461Z,74.20
2019-02-07T21:04:25.065Z,71.27
2019-02-07T21:06:58.690Z,74.60
2019-02-07T21:09:32.364Z,77.27
2019-02-07T21:12:06.282Z,76.07
2019-02-07T21:14:39.952Z,83.47
2019-02-07T21:17:13.678Z,83.60
2019-02-07T21:19:47.247Z,80.73
2019-02-07T21:22:21.095Z,74.63
2019-02-07T21:24:54.658Z,81.07
2019-02-07T21:27:28.301Z,79.93
2019-02-07T21:30:02.084Z,83.33
2019-02-07T21:32:35.668Z,83.27
2019-02-07T21:35:12.741Z,75.97
2019-02-07T21:37:46.434Z,83.77
2019-02-07T21:40:22.362Z,80.17
2019-02-07T21:42:56.844Z,81.00
2019-02-07T21:45:30.518Z,82.77
2019-02-07T21:48:05.992Z,94.37
2019-02-07T21:50:39.699Z,86.40
2019-02-07T21:53:13.353Z,86.33
2019-02-07T21:55:46.946Z,84.00
2019-02-07T21:58:20.853Z,81.47
2019-02-07T22:00:54.512Z,81.53
2019-02-07T22:03:28.220Z,96.43
2019-02-07T22:06:01.908Z,85.40
2019-02-07T22:08:35.615Z,83.07
2019-02-07T22:11:10.847Z,84.23
2019-02-07T22:13:44.480Z,84.83
2019-02-07T22:16:18.064Z,90.87
2019-02-07T22:18:51.695Z,90.07
2019-02-07T22:21:25.280Z,88.93
2019-02-07T22:23:58.927Z,95.77
2019-02-07T22:26:32.556Z,107.57
2019-02-07T22:29:06.321Z,97.50
2019-02-07T22:31:40.225Z,90.27
2019-02-07T22:34:13.946Z,83.47
2019-02-07T22:36:47.548Z,84.33
2019-02-07T22:39:21.188Z,84.43
2019-02-07T22:41:54.782Z,85.00
2019-02-07T22:44:28.425Z,94.63
2019-02-07T22:47:02.102Z,82.93
2019-02-07T22:49:35.699Z,83.00
2019-02-07T22:52:09.462Z,82.27
2019-02-07T22:54:43.473Z,81.67
2019-02-07T22:57:25.733Z,73.43
2019-02-07T22:59:59.427Z,84.83
2019-02-07T23:02:33.218Z,86.40
2019-02-07T23:05:07.330Z,77.03
2019-02-07T23:07:41.016Z,83.30
2019-02-07T23:10:14.765Z,87.67
2019-02-07T23:12:48.710Z,82.13
2019-02-07T23:15:22.637Z,80.43
2019-02-07T23:17:56.256Z,76.60
2019-02-07T23:20:29.956Z,80.10
2019-02-07T23:23:06.382Z,73.37
2019-02-07T23:25:40.429Z,82.00
2019-02-07T23:28:14.351Z,74.30
2019-02-07T23:30:48.056Z,79.67
2019-02-07T23:33:21.791Z,80.53
2019-02-07T23:35:55.465Z,81.63
2019-02-07T23:38:29.117Z,84.67
2019-02-07T23:41:02.759Z,81.03
2019-02-07T23:43:36.480Z,78.60
2019-02-07T23:46:11.168Z,83.40
2019-02-07T23:48:45.092Z,78.47
2019-02-07T23:51:18.835Z,82.13
2019-02-07T23:53:52.605Z,74.83
2019-02-07T23:56:26.213Z,72.80
2019-02-07T23:58:59.880Z,81.53
